sensor_id;sensor_type;location;lat;lon;timestamp;pressure;altitude;pressure_sealevel;temperature;humidity
59104;BME280;51449;51.676;5.812;2023-07-13T00:01:27;101335.19;;;17.51;59.34
59104;BME280;51449;51.676;5.812;2023-07-13T00:03:50;101332.75;;;17.49;59.63
59104;BME280;51449;51.676;5.812;2023-07-13T00:06:12;101343.81;;;17.46;59.89
59104;BME280;51449;51.676;5.812;2023-07-13T00:08:34;101349.69;;;17.41;59.81
59104;BME280;51449;51.676;5.812;2023-07-13T00:10:56;101349.19;;;17.35;59.90
59104;BME280;51449;51.676;5.812;2023-07-13T00:13:18;101349.94;;;17.32;60.03
59104;BME280;51449;51.676;5.812;2023-07-13T00:15:39;101345.81;;;17.26;60.30
59104;BME280;51449;51.676;5.812;2023-07-13T00:18:01;101341.78;;;17.23;60.24
59104;BME280;51449;51.676;5.812;2023-07-13T00:20:24;101339.38;;;17.22;60.30
59104;BME280;51449;51.676;5.812;2023-07-13T00:22:46;101346.50;;;17.19;60.25
59104;BME280;51449;51.676;5.812;2023-07-13T00:25:12;101338.50;;;17.18;60.13
59104;BME280;51449;51.676;5.812;2023-07-13T00:27:36;101347.16;;;17.13;60.33
59104;BME280;51449;51.676;5.812;2023-07-13T00:29:58;101352.28;;;17.10;60.67
59104;BME280;51449;51.676;5.812;2023-07-13T00:32:20;101352.28;;;17.10;60.67
59104;BME280;51449;51.676;5.812;2023-07-13T00:34:42;101360.19;;;17.08;60.56
59104;BME280;51449;51.676;5.812;2023-07-13T00:37:04;101343.03;;;17.06;60.70
59104;BME280;51449;51.676;5.812;2023-07-13T00:39:28;101349.78;;;17.05;60.71
59104;BME280;51449;51.676;5.812;2023-07-13T00:41:50;101351.66;;;17.01;60.89
59104;BME280;51449;51.676;5.812;2023-07-13T00:44:14;101352.84;;;17.00;61.47
59104;BME280;51449;51.676;5.812;2023-07-13T00:46:37;101345.25;;;16.97;61.43
59104;BME280;51449;51.676;5.812;2023-07-13T00:49:03;101338.50;;;16.98;61.55
59104;BME280;51449;51.676;5.812;2023-07-13T00:51:31;101340.47;;;16.98;61.81
59104;BME280;51449;51.676;5.812;2023-07-13T00:53:59;101345.59;;;16.96;61.64
59104;BME280;51449;51.676;5.812;2023-07-13T00:56:25;101344.25;;;16.89;62.04
59104;BME280;51449;51.676;5.812;2023-07-13T00:58:48;101349.41;;;16.87;61.92
59104;BME280;51449;51.676;5.812;2023-07-13T01:01:12;101354.06;;;16.83;62.08
59104;BME280;51449;51.676;5.812;2023-07-13T01:03:35;101362.34;;;16.80;62.07
59104;BME280;51449;51.676;5.812;2023-07-13T01:05:57;101360.59;;;16.75;62.16
59104;BME280;51449;51.676;5.812;2023-07-13T01:08:21;101359.34;;;16.73;62.24
59104;BME280;51449;51.676;5.812;2023-07-13T01:10:54;101357.75;;;16.72;62.32
59104;BME280;51449;51.676;5.812;2023-07-13T01:13:18;101358.09;;;16.70;61.98
59104;BME280;51449;51.676;5.812;2023-07-13T01:15:43;101360.53;;;16.72;62.62
59104;BME280;51449;51.676;5.812;2023-07-13T01:18:10;101355.31;;;16.70;62.60
59104;BME280;51449;51.676;5.812;2023-07-13T01:20:36;101358.94;;;16.71;62.68
59104;BME280;51449;51.676;5.812;2023-07-13T01:23:00;101357.31;;;16.69;63.07
59104;BME280;51449;51.676;5.812;2023-07-13T01:25:23;101364.50;;;16.71;63.27
59104;BME280;51449;51.676;5.812;2023-07-13T01:27:45;101357.75;;;16.72;63.07
59104;BME280;51449;51.676;5.812;2023-07-13T01:30:07;101364.84;;;16.69;63.28
59104;BME280;51449;51.676;5.812;2023-07-13T01:32:30;101362.00;;;16.65;63.05
59104;BME280;51449;51.676;5.812;2023-07-13T01:34:54;101352.75;;;16.61;63.38
59104;BME280;51449;51.676;5.812;2023-07-13T01:37:16;101363.38;;;16.56;63.41
59104;BME280;51449;51.676;5.812;2023-07-13T01:39:38;101358.94;;;16.55;63.44
59104;BME280;51449;51.676;5.812;2023-07-13T01:42:00;101358.50;;;16.53;63.55
59104;BME280;51449;51.676;5.812;2023-07-13T01:44:22;101351.34;;;16.52;63.55
59104;BME280;51449;51.676;5.812;2023-07-13T01:46:44;101354.47;;;16.50;63.89
59104;BME280;51449;51.676;5.812;2023-07-13T01:49:06;101351.22;;;16.48;64.17
59104;BME280;51449;51.676;5.812;2023-07-13T01:51:28;101362.38;;;16.48;64.00
59104;BME280;51449;51.676;5.812;2023-07-13T01:53:49;101360.75;;;16.47;64.00
59104;BME280;51449;51.676;5.812;2023-07-13T01:56:11;101362.75;;;16.46;64.36
59104;BME280;51449;51.676;5.812;2023-07-13T01:58:34;101362.28;;;16.44;64.15
59104;BME280;51449;51.676;5.812;2023-07-13T02:00:55;101357.47;;;16.41;64.08
59104;BME280;51449;51.676;5.812;2023-07-13T02:03:17;101355.38;;;16.38;64.44
59104;BME280;51449;51.676;5.812;2023-07-13T02:05:39;101364.44;;;16.35;64.38
59104;BME280;51449;51.676;5.812;2023-07-13T02:08:03;101359.69;;;16.36;64.44
59104;BME280;51449;51.676;5.812;2023-07-13T02:10:25;101358.09;;;16.35;64.59
59104;BME280;51449;51.676;5.812;2023-07-13T02:12:48;101358.44;;;16.33;64.86
59104;BME280;51449;51.676;5.812;2023-07-13T02:15:12;101362.75;;;16.31;64.80
59104;BME280;51449;51.676;5.812;2023-07-13T02:17:35;101368.94;;;16.24;65.00
59104;BME280;51449;51.676;5.812;2023-07-13T02:19:58;101366.41;;;16.19;65.08
59104;BME280;51449;51.676;5.812;2023-07-13T02:22:20;101362.38;;;16.16;65.12
59104;BME280;51449;51.676;5.812;2023-07-13T02:24:43;101364.28;;;16.12;65.27
59104;BME280;51449;51.676;5.812;2023-07-13T02:27:05;101360.25;;;16.10;65.17
59104;BME280;51449;51.676;5.812;2023-07-13T02:29:27;101350.66;;;16.07;65.46
59104;BME280;51449;51.676;5.812;2023-07-13T02:31:49;101353.78;;;16.05;65.26
59104;BME280;51449;51.676;5.812;2023-07-13T02:34:11;101360.88;;;16.03;65.72
59104;BME280;51449;51.676;5.812;2023-07-13T02:36:33;101368.75;;;16.01;65.58
59104;BME280;51449;51.676;5.812;2023-07-13T02:38:54;101365.97;;;16.01;65.80
59104;BME280;51449;51.676;5.812;2023-07-13T02:41:16;101371.53;;;16.01;65.99
59104;BME280;51449;51.676;5.812;2023-07-13T02:43:39;101380.31;;;16.03;66.03
59104;BME280;51449;51.676;5.812;2023-07-13T02:46:03;101372.78;;;16.03;66.32
59104;BME280;51449;51.676;5.812;2023-07-13T02:48:31;101371.66;;;16.04;66.15
59104;BME280;51449;51.676;5.812;2023-07-13T02:50:53;101377.19;;;16.04;66.13
59104;BME280;51449;51.676;5.812;2023-07-13T02:53:15;101372.72;;;16.00;66.29
59104;BME280;51449;51.676;5.812;2023-07-13T02:55:37;101379.41;;;15.99;66.43
59104;BME280;51449;51.676;5.812;2023-07-13T02:58:01;101379.06;;;16.00;66.57
59104;BME280;51449;51.676;5.812;2023-07-13T03:00:23;101379.41;;;15.99;66.51
59104;BME280;51449;51.676;5.812;2023-07-13T03:02:45;101375.31;;;15.93;67.05
59104;BME280;51449;51.676;5.812;2023-07-13T03:05:07;101378.44;;;15.91;66.95
59104;BME280;51449;51.676;5.812;2023-07-13T03:07:34;101380.75;;;15.89;67.07
59104;BME280;51449;51.676;5.812;2023-07-13T03:09:58;101384.72;;;15.88;67.19
59104;BME280;51449;51.676;5.812;2023-07-13T03:12:29;101389.81;;;15.86;67.46
59104;BME280;51449;51.676;5.812;2023-07-13T03:14:52;101392.13;;;15.84;67.76
59104;BME280;51449;51.676;5.812;2023-07-13T03:17:15;101397.34;;;15.86;67.44
59104;BME280;51449;51.676;5.812;2023-07-13T03:19:37;101394.09;;;15.83;67.74
59104;BME280;51449;51.676;5.812;2023-07-13T03:21:59;101398.88;;;15.83;67.37
59104;BME280;51449;51.676;5.812;2023-07-13T03:24:21;101390.06;;;15.81;67.81
59104;BME280;51449;51.676;5.812;2023-07-13T03:26:45;101390.88;;;15.81;67.69
59104;BME280;51449;51.676;5.812;2023-07-13T03:29:07;101384.41;;;15.77;67.85
59104;BME280;51449;51.676;5.812;2023-07-13T03:31:32;101388.00;;;15.78;68.09
59104;BME280;51449;51.676;5.812;2023-07-13T03:33:56;101387.28;;;15.81;68.16
59104;BME280;51449;51.676;5.812;2023-07-13T03:36:23;101390.88;;;15.81;68.12
59104;BME280;51449;51.676;5.812;2023-07-13T03:38:55;101389.28;;;15.80;67.96
59104;BME280;51449;51.676;5.812;2023-07-13T03:41:26;101393.19;;;15.79;68.27
59104;BME280;51449;51.676;5.812;2023-07-13T03:43:49;101404.75;;;15.81;68.54
59104;BME280;51449;51.676;5.812;2023-07-13T03:46:15;101390.88;;;15.81;68.53
59104;BME280;51449;51.676;5.812;2023-07-13T03:48:38;101399.56;;;15.80;68.90
59104;BME280;51449;51.676;5.812;2023-07-13T03:51:01;101400.72;;;15.79;68.94
59104;BME280;51449;51.676;5.812;2023-07-13T03:53:24;101399.94;;;15.78;68.97
59104;BME280;51449;51.676;5.812;2023-07-13T03:55:45;101413.44;;;15.80;68.78
59104;BME280;51449;51.676;5.812;2023-07-13T03:58:26;101413.81;;;15.78;68.88
59104;BME280;51449;51.676;5.812;2023-07-13T04:01:04;101410.59;;;15.76;68.79
59104;BME280;51449;51.676;5.812;2023-07-13T04:03:27;101419.25;;;15.75;68.97
59104;BME280;51449;51.676;5.812;2023-07-13T04:05:52;101415.34;;;15.76;69.24
59104;BME280;51449;51.676;5.812;2023-07-13T04:08:14;101412.19;;;15.77;69.70
59104;BME280;51449;51.676;5.812;2023-07-13T04:10:36;101420.25;;;15.82;69.25
59104;BME280;51449;51.676;5.812;2023-07-13T04:12:58;101414.34;;;15.84;69.72
59104;BME280;51449;51.676;5.812;2023-07-13T04:15:20;101418.41;;;15.87;69.69
59104;BME280;51449;51.676;5.812;2023-07-13T04:17:41;101413.66;;;15.87;69.96
59104;BME280;51449;51.676;5.812;2023-07-13T04:20:04;101417.69;;;15.90;69.91
59104;BME280;51449;51.676;5.812;2023-07-13T04:22:26;101419.78;;;15.93;70.12
59104;BME280;51449;51.676;5.812;2023-07-13T04:24:48;101415.81;;;15.94;70.13
59104;BME280;51449;51.676;5.812;2023-07-13T04:27:10;101426.22;;;15.97;69.98
59104;BME280;51449;51.676;5.812;2023-07-13T04:29:32;101433.88;;;16.00;69.97
59104;BME280;51449;51.676;5.812;2023-07-13T04:31:54;101431.88;;;16.00;69.99
59104;BME280;51449;51.676;5.812;2023-07-13T04:34:15;101432.69;;;16.01;70.36
59104;BME280;51449;51.676;5.812;2023-07-13T04:36:38;101431.97;;;16.04;70.16
59104;BME280;51449;51.676;5.812;2023-07-13T04:39:01;101433.59;;;16.05;70.43
59104;BME280;51449;51.676;5.812;2023-07-13T04:41:23;101437.25;;;16.09;70.41
59104;BME280;51449;51.676;5.812;2023-07-13T04:43:44;101443.72;;;16.13;70.58
59104;BME280;51449;51.676;5.812;2023-07-13T04:46:08;101442.66;;;16.18;70.66
59104;BME280;51449;51.676;5.812;2023-07-13T04:48:33;101441.22;;;16.24;70.66
59104;BME280;51449;51.676;5.812;2023-07-13T04:50:56;101441.78;;;16.30;70.54
59104;BME280;51449;51.676;5.812;2023-07-13T04:53:19;101445.44;;;16.34;71.36
59104;BME280;51449;51.676;5.812;2023-07-13T04:55:42;101447.97;;;16.39;71.18
59104;BME280;51449;51.676;5.812;2023-07-13T04:58:04;101447.34;;;16.45;71.15
59104;BME280;51449;51.676;5.812;2023-07-13T05:00:26;101443.94;;;16.52;71.43
59104;BME280;51449;51.676;5.812;2023-07-13T05:02:48;101442.75;;;16.53;71.62
59104;BME280;51449;51.676;5.812;2023-07-13T05:05:10;101442.94;;;16.60;71.18
59104;BME280;51449;51.676;5.812;2023-07-13T05:07:32;101442.22;;;16.63;71.28
59104;BME280;51449;51.676;5.812;2023-07-13T05:09:54;101455.16;;;16.72;71.47
59104;BME280;51449;51.676;5.812;2023-07-13T05:12:16;101453.03;;;16.81;71.46
59104;BME280;51449;51.676;5.812;2023-07-13T05:14:37;101453.88;;;16.85;71.59
59104;BME280;51449;51.676;5.812;2023-07-13T05:16:59;101458.47;;;16.93;71.32
59104;BME280;51449;51.676;5.812;2023-07-13T05:19:21;101460.53;;;16.96;71.65
59104;BME280;51449;51.676;5.812;2023-07-13T05:21:43;101463.13;;;17.05;71.17
59104;BME280;51449;51.676;5.812;2023-07-13T05:24:04;101473.19;;;17.09;71.58
59104;BME280;51449;51.676;5.812;2023-07-13T05:26:39;101474.94;;;17.18;71.31
59104;BME280;51449;51.676;5.812;2023-07-13T05:29:01;101473.94;;;17.26;71.43
59104;BME280;51449;51.676;5.812;2023-07-13T05:31:23;101468.50;;;17.33;71.50
59104;BME280;51449;51.676;5.812;2023-07-13T05:33:45;101473.78;;;17.38;71.47
59104;BME280;51449;51.676;5.812;2023-07-13T05:36:07;101473.91;;;17.42;71.63
59104;BME280;51449;51.676;5.812;2023-07-13T05:38:29;101477.53;;;17.46;71.59
59104;BME280;51449;51.676;5.812;2023-07-13T05:40:52;101481.31;;;17.53;71.90
59104;BME280;51449;51.676;5.812;2023-07-13T05:43:15;101486.59;;;17.59;71.66
59104;BME280;51449;51.676;5.812;2023-07-13T05:45:37;101488.59;;;17.58;71.93
59104;BME280;51449;51.676;5.812;2023-07-13T05:47:59;101487.47;;;17.63;71.78
59104;BME280;51449;51.676;5.812;2023-07-13T05:50:21;101490.78;;;17.68;71.95
59104;BME280;51449;51.676;5.812;2023-07-13T05:52:43;101486.06;;;17.72;71.64
59104;BME280;51449;51.676;5.812;2023-07-13T05:55:05;101492.88;;;17.75;71.83
59104;BME280;51449;51.676;5.812;2023-07-13T05:57:27;101497.03;;;17.81;71.60
59104;BME280;51449;51.676;5.812;2023-07-13T05:59:48;101491.16;;;17.86;71.73
59104;BME280;51449;51.676;5.812;2023-07-13T06:02:11;101501.97;;;17.88;71.47
59104;BME280;51449;51.676;5.812;2023-07-13T06:04:32;101508.34;;;17.88;71.40
59104;BME280;51449;51.676;5.812;2023-07-13T06:06:54;101496.09;;;17.93;71.76
59104;BME280;51449;51.676;5.812;2023-07-13T06:09:16;101504.22;;;18.02;71.62
59104;BME280;51449;51.676;5.812;2023-07-13T06:11:38;101507.13;;;18.09;71.32
59104;BME280;51449;51.676;5.812;2023-07-13T06:13:59;101508.47;;;18.15;71.61
59104;BME280;51449;51.676;5.812;2023-07-13T06:16:22;101503.03;;;18.22;71.64
59104;BME280;51449;51.676;5.812;2023-07-13T06:18:44;101507.09;;;18.28;71.46
59104;BME280;51449;51.676;5.812;2023-07-13T06:21:15;101507.69;;;18.37;71.16
59104;BME280;51449;51.676;5.812;2023-07-13T06:23:39;101510.16;;;18.43;71.17
59104;BME280;51449;51.676;5.812;2023-07-13T06:26:01;101508.69;;;18.49;71.24
59104;BME280;51449;51.676;5.812;2023-07-13T06:28:23;101509.53;;;18.53;70.72
59104;BME280;51449;51.676;5.812;2023-07-13T06:30:45;101521.22;;;18.58;70.21
59104;BME280;51449;51.676;5.812;2023-07-13T06:33:07;101525.31;;;18.65;70.35
59104;BME280;51449;51.676;5.812;2023-07-13T06:35:29;101531.81;;;18.72;70.24
59104;BME280;51449;51.676;5.812;2023-07-13T06:37:51;101525.22;;;18.80;70.02
59104;BME280;51449;51.676;5.812;2023-07-13T06:40:12;101518.00;;;18.79;69.63
59104;BME280;51449;51.676;5.812;2023-07-13T06:42:34;101513.66;;;18.82;69.73
59104;BME280;51449;51.676;5.812;2023-07-13T06:44:56;101519.31;;;18.86;69.69
59104;BME280;51449;51.676;5.812;2023-07-13T06:47:18;101522.16;;;18.89;69.53
59104;BME280;51449;51.676;5.812;2023-07-13T06:49:39;101522.59;;;18.91;69.60
59104;BME280;51449;51.676;5.812;2023-07-13T06:52:01;101522.66;;;18.95;69.52
59104;BME280;51449;51.676;5.812;2023-07-13T06:54:23;101529.53;;;19.01;69.29
59104;BME280;51449;51.676;5.812;2023-07-13T06:56:45;101531.56;;;19.04;69.54
59104;BME280;51449;51.676;5.812;2023-07-13T06:59:08;101527.63;;;19.05;69.13
59104;BME280;51449;51.676;5.812;2023-07-13T07:01:29;101524.94;;;19.12;68.76
59104;BME280;51449;51.676;5.812;2023-07-13T07:03:51;101529.41;;;19.17;68.71
59104;BME280;51449;51.676;5.812;2023-07-13T07:06:19;101528.63;;;19.20;68.76
59104;BME280;51449;51.676;5.812;2023-07-13T07:08:43;101538.28;;;19.26;68.96
59104;BME280;51449;51.676;5.812;2023-07-13T07:11:11;101538.84;;;19.35;68.67
59104;BME280;51449;51.676;5.812;2023-07-13T07:13:34;101538.16;;;19.42;68.64
59104;BME280;51449;51.676;5.812;2023-07-13T07:15:56;101537.38;;;19.45;68.28
59104;BME280;51449;51.676;5.812;2023-07-13T07:18:17;101551.78;;;19.47;68.14
59104;BME280;51449;51.676;5.812;2023-07-13T07:20:40;101540.97;;;19.45;67.88
59104;BME280;51449;51.676;5.812;2023-07-13T07:23:02;101545.41;;;19.46;67.81
59104;BME280;51449;51.676;5.812;2023-07-13T07:25:24;101544.59;;;19.46;68.15
59104;BME280;51449;51.676;5.812;2023-07-13T07:27:46;101551.31;;;19.41;67.75
59104;BME280;51449;51.676;5.812;2023-07-13T07:30:10;101548.88;;;19.40;68.04
59104;BME280;51449;51.676;5.812;2023-07-13T07:32:36;101551.25;;;19.38;68.24
59104;BME280;51449;51.676;5.812;2023-07-13T07:35:00;101556.47;;;19.39;68.08
59104;BME280;51449;51.676;5.812;2023-07-13T07:37:22;101557.28;;;19.40;67.99
59104;BME280;51449;51.676;5.812;2023-07-13T07:40:04;101552.91;;;19.42;67.87
59104;BME280;51449;51.676;5.812;2023-07-13T07:42:29;101552.13;;;19.42;67.74
59104;BME280;51449;51.676;5.812;2023-07-13T07:44:51;101562.94;;;19.43;67.56
59104;BME280;51449;51.676;5.812;2023-07-13T07:47:13;101560.97;;;19.48;67.34
59104;BME280;51449;51.676;5.812;2023-07-13T07:49:36;101561.88;;;19.55;67.65
59104;BME280;51449;51.676;5.812;2023-07-13T07:51:58;101552.88;;;19.65;67.55
59104;BME280;51449;51.676;5.812;2023-07-13T07:54:19;101551.03;;;19.77;67.29
59104;BME280;51449;51.676;5.812;2023-07-13T07:56:50;101556.72;;;19.84;66.83
59104;BME280;51449;51.676;5.812;2023-07-13T07:59:14;101551.28;;;19.95;66.72
59104;BME280;51449;51.676;5.812;2023-07-13T08:01:39;101558.94;;;20.01;66.63
59104;BME280;51449;51.676;5.812;2023-07-13T08:04:21;101565.03;;;20.10;66.23
59104;BME280;51449;51.676;5.812;2023-07-13T08:06:45;101565.97;;;20.22;65.71
59104;BME280;51449;51.676;5.812;2023-07-13T08:09:07;101572.06;;;20.31;65.59
59104;BME280;51449;51.676;5.812;2023-07-13T08:11:30;101560.94;;;20.38;65.14
59104;BME280;51449;51.676;5.812;2023-07-13T08:13:55;101556.56;;;20.41;64.85
59104;BME280;51449;51.676;5.812;2023-07-13T08:16:17;101550.25;;;20.47;64.76
59104;BME280;51449;51.676;5.812;2023-07-13T08:18:39;101558.84;;;20.65;64.60
59104;BME280;51449;51.676;5.812;2023-07-13T08:21:04;101555.50;;;20.90;64.53
59104;BME280;51449;51.676;5.812;2023-07-13T08:23:27;101554.91;;;21.14;63.76
59104;BME280;51449;51.676;5.812;2023-07-13T08:25:53;101552.22;;;21.32;63.62
59104;BME280;51449;51.676;5.812;2023-07-13T08:28:16;101552.28;;;21.40;62.82
59104;BME280;51449;51.676;5.812;2023-07-13T08:30:37;101547.47;;;21.40;62.05
59104;BME280;51449;51.676;5.812;2023-07-13T08:33:00;101555.44;;;21.38;61.74
59104;BME280;51449;51.676;5.812;2023-07-13T08:35:22;101546.22;;;21.34;61.49
59104;BME280;51449;51.676;5.812;2023-07-13T08:37:44;101539.06;;;21.40;61.56
59104;BME280;51449;51.676;5.812;2023-07-13T08:40:09;101548.78;;;21.53;60.97
59104;BME280;51449;51.676;5.812;2023-07-13T08:42:36;101556.06;;;21.72;60.98
59104;BME280;51449;51.676;5.812;2023-07-13T08:48:04;101552.56;;;21.90;58.95
59104;BME280;51449;51.676;5.812;2023-07-13T08:50:36;101557.75;;;21.80;58.96
59104;BME280;51449;51.676;5.812;2023-07-13T08:53:23;101555.38;;;21.90;58.95
59104;BME280;51449;51.676;5.812;2023-07-13T08:55:58;101556.94;;;21.80;57.97
59104;BME280;51449;51.676;5.812;2023-07-13T08:58:21;101558.47;;;21.67;56.92
59104;BME280;51449;51.676;5.812;2023-07-13T09:00:52;101551.69;;;21.71;57.27
59104;BME280;51449;51.676;5.812;2023-07-13T09:03:30;101547.69;;;21.79;57.73
59104;BME280;51449;51.676;5.812;2023-07-13T09:06:01;101547.38;;;21.95;57.26
59104;BME280;51449;51.676;5.812;2023-07-13T09:14:23;101542.72;;;22.42;55.42
59104;BME280;51449;51.676;5.812;2023-07-13T09:16:56;101546.34;;;22.39;53.73
59104;BME280;51449;51.676;5.812;2023-07-13T09:19:26;101546.34;;;22.50;54.33
59104;BME280;51449;51.676;5.812;2023-07-13T09:21:52;101541.56;;;22.69;54.11
59104;BME280;51449;51.676;5.812;2023-07-13T09:24:37;101540.38;;;22.84;53.57
59104;BME280;51449;51.676;5.812;2023-07-13T09:27:27;101536.38;;;23.06;53.31
59104;BME280;51449;51.676;5.812;2023-07-13T09:32:37;101532.28;;;23.43;52.40
59104;BME280;51449;51.676;5.812;2023-07-13T09:35:10;101526.63;;;23.58;51.51
59104;BME280;51449;51.676;5.812;2023-07-13T09:37:34;101539.06;;;23.75;51.86
59104;BME280;51449;51.676;5.812;2023-07-13T09:39:58;101542.59;;;24.00;51.04
59104;BME280;51449;51.676;5.812;2023-07-13T09:42:26;101540.00;;;24.31;50.75
59104;BME280;51449;51.676;5.812;2023-07-13T09:44:58;101539.09;;;24.52;49.16
59104;BME280;51449;51.676;5.812;2023-07-13T09:47:29;101540.31;;;24.51;47.94
59104;BME280;51449;51.676;5.812;2023-07-13T09:49:59;101539.53;;;24.47;48.02
59104;BME280;51449;51.676;5.812;2023-07-13T09:52:25;101543.22;;;24.33;48.88
59104;BME280;51449;51.676;5.812;2023-07-13T09:54:50;101546.91;;;24.23;48.32
59104;BME280;51449;51.676;5.812;2023-07-13T09:57:17;101540.94;;;24.10;48.68
59104;BME280;51449;51.676;5.812;2023-07-13T09:59:51;101546.19;;;24.01;48.54
59104;BME280;51449;51.676;5.812;2023-07-13T10:02:28;101551.44;;;23.99;48.42
59104;BME280;51449;51.676;5.812;2023-07-13T10:04:57;101542.59;;;24.00;47.67
59104;BME280;51449;51.676;5.812;2023-07-13T10:07:22;101539.69;;;24.18;47.92
59104;BME280;51449;51.676;5.812;2023-07-13T10:09:55;101540.75;;;24.42;47.92
59104;BME280;51449;51.676;5.812;2023-07-13T10:12:17;101541.47;;;24.57;48.26
59104;BME280;51449;51.676;5.812;2023-07-13T10:14:41;101538.91;;;24.81;47.72
59104;BME280;51449;51.676;5.812;2023-07-13T10:17:04;101539.91;;;25.01;46.22
59104;BME280;51449;51.676;5.812;2023-07-13T10:19:32;101538.59;;;25.13;45.69
59104;BME280;51449;51.676;5.812;2023-07-13T10:21:59;101534.84;;;25.30;45.49
59104;BME280;51449;51.676;5.812;2023-07-13T10:24:25;101538.28;;;25.49;45.55
59104;BME280;51449;51.676;5.812;2023-07-13T10:26:54;101535.72;;;25.61;45.00
59104;BME280;51449;51.676;5.812;2023-07-13T10:29:23;101544.72;;;25.49;44.55
59104;BME280;51449;51.676;5.812;2023-07-13T10:31:49;101555.16;;;25.52;43.82
59104;BME280;51449;51.676;5.812;2023-07-13T10:34:13;101546.31;;;25.50;43.32
59104;BME280;51449;51.676;5.812;2023-07-13T10:36:42;101535.34;;;25.22;43.97
59104;BME280;51449;51.676;5.812;2023-07-13T10:39:06;101543.19;;;24.96;43.55
59104;BME280;51449;51.676;5.812;2023-07-13T10:41:31;101540.19;;;24.69;43.35
59104;BME280;51449;51.676;5.812;2023-07-13T10:43:59;101540.66;;;24.60;43.85
59104;BME280;51449;51.676;5.812;2023-07-13T10:46:25;101543.09;;;24.58;44.10
59104;BME280;51449;51.676;5.812;2023-07-13T10:48:52;101551.91;;;24.60;44.81
59104;BME280;51449;51.676;5.812;2023-07-13T10:51:19;101550.63;;;24.75;44.42
59104;BME280;51449;51.676;5.812;2023-07-13T10:53:42;101547.94;;;25.06;44.69
59104;BME280;51449;51.676;5.812;2023-07-13T10:56:28;101544.22;;;25.20;44.58
59104;BME280;51449;51.676;5.812;2023-07-13T11:01:50;101564.66;;;24.79;44.19
59104;BME280;51449;51.676;5.812;2023-07-13T11:04:18;101572.03;;;24.66;44.64
59104;BME280;51449;51.676;5.812;2023-07-13T11:06:42;101566.34;;;24.69;44.99
59104;BME280;51449;51.676;5.812;2023-07-13T11:15:12;101572.13;;;24.41;45.02
59104;BME280;51449;51.676;5.812;2023-07-13T11:17:50;101582.34;;;24.13;45.25
59104;BME280;51449;51.676;5.812;2023-07-13T11:20:23;101619.06;;;23.74;47.54
59104;BME280;51449;51.676;5.812;2023-07-13T11:25:38;101635.44;;;22.46;52.40
59104;BME280;51449;51.676;5.812;2023-07-13T11:28:12;101622.31;;;21.91;53.53
59104;BME280;51449;51.676;5.812;2023-07-13T11:33:20;101643.31;;;21.08;57.65
59104;BME280;51449;51.676;5.812;2023-07-13T11:35:52;101633.53;;;20.91;58.10
59104;BME280;51449;51.676;5.812;2023-07-13T11:38:20;101633.88;;;20.86;58.51
59104;BME280;51449;51.676;5.812;2023-07-13T11:40:47;101625.38;;;20.76;58.85
59104;BME280;51449;51.676;5.812;2023-07-13T11:43:15;101626.53;;;20.71;59.01
59104;BME280;51449;51.676;5.812;2023-07-13T11:45:37;101641.63;;;20.63;59.28
59104;BME280;51449;51.676;5.812;2023-07-13T11:48:38;101646.25;;;20.48;59.73
59104;BME280;51449;51.676;5.812;2023-07-13T11:51:03;101637.25;;;20.31;60.86
59104;BME280;51449;51.676;5.812;2023-07-13T11:53:29;101667.44;;;20.15;61.86
59104;BME280;51449;51.676;5.812;2023-07-13T11:55:58;101661.25;;;20.02;62.50
59104;BME280;51449;51.676;5.812;2023-07-13T11:58:23;101659.59;;;19.98;64.28
59104;BME280;51449;51.676;5.812;2023-07-13T12:00:47;101653.81;;;19.83;64.60
59104;BME280;51449;51.676;5.812;2023-07-13T12:03:11;101641.06;;;19.63;64.28
59104;BME280;51449;51.676;5.812;2023-07-13T12:05:34;101640.47;;;19.50;65.38
59104;BME280;51449;51.676;5.812;2023-07-13T12:07:56;101639.31;;;19.51;65.31
59104;BME280;51449;51.676;5.812;2023-07-13T12:10:24;101633.44;;;19.60;65.70
59104;BME280;51449;51.676;5.812;2023-07-13T12:13:05;101631.66;;;19.71;66.57
59104;BME280;51449;51.676;5.812;2023-07-13T12:15:40;101623.94;;;19.91;66.71
59104;BME280;51449;51.676;5.812;2023-07-13T12:18:31;101617.00;;;20.42;66.15
59104;BME280;51449;51.676;5.812;2023-07-13T12:20:57;101612.81;;;20.59;66.89
59104;BME280;51449;51.676;5.812;2023-07-13T12:23:31;101616.13;;;20.71;66.51
59104;BME280;51449;51.676;5.812;2023-07-13T12:25:55;101607.00;;;20.78;65.01
59104;BME280;51449;51.676;5.812;2023-07-13T12:28:31;101611.84;;;20.81;64.49
59104;BME280;51449;51.676;5.812;2023-07-13T12:31:00;101613.50;;;20.89;64.30
59104;BME280;51449;51.676;5.812;2023-07-13T12:33:28;101609.66;;;21.05;63.52
59104;BME280;51449;51.676;5.812;2023-07-13T12:35:52;101613.91;;;21.36;62.87
59104;BME280;51449;51.676;5.812;2023-07-13T12:38:15;101615.78;;;21.69;63.07
59104;BME280;51449;51.676;5.812;2023-07-13T12:40:38;101613.13;;;22.01;62.78
59104;BME280;51449;51.676;5.812;2023-07-13T12:43:02;101612.91;;;22.32;62.32
59104;BME280;51449;51.676;5.812;2023-07-13T12:45:28;101616.59;;;22.64;62.55
59104;BME280;51449;51.676;5.812;2023-07-13T12:48:05;101609.41;;;22.92;61.76
59104;BME280;51449;51.676;5.812;2023-07-13T12:50:41;101608.69;;;23.10;62.49
59104;BME280;51449;51.676;5.812;2023-07-13T12:53:06;101602.63;;;23.40;61.93
59104;BME280;51449;51.676;5.812;2023-07-13T12:55:42;101595.78;;;23.59;61.63
59104;BME280;51449;51.676;5.812;2023-07-13T12:58:06;101605.81;;;23.56;61.50
59104;BME280;51449;51.676;5.812;2023-07-13T13:00:36;101593.31;;;23.71;61.30
59104;BME280;51449;51.676;5.812;2023-07-13T13:03:07;101587.69;;;23.82;61.17
59104;BME280;51449;51.676;5.812;2023-07-13T13:05:48;101588.06;;;23.84;61.06